createdAt,value
2019-03-18T00:01:08.780Z,73.10
2019-03-18T00:03:38.208Z,73.20
2019-03-18T00:06:07.587Z,73.40
2019-03-18T00:08:36.748Z,73.40
2019-03-18T00:11:05.536Z,73.50
2019-03-18T00:13:34.663Z,73.60
2019-03-18T00:16:04.317Z,73.60
2019-03-18T00:18:33.612Z,73.60
2019-03-18T00:21:03.055Z,73.60
2019-03-18T00:23:31.865Z,73.60
2019-03-18T00:26:01.228Z,73.60
2019-03-18T00:28:30.858Z,73.60
2019-03-18T00:30:59.887Z,73.50
2019-03-18T00:33:29.475Z,73.50
2019-03-18T00:35:58.778Z,73.40
2019-03-18T00:38:27.821Z,73.40
2019-03-18T00:40:56.858Z,73.40
2019-03-18T00:43:25.629Z,73.40
2019-03-18T00:45:55.237Z,73.40
2019-03-18T00:48:24.623Z,73.30
2019-03-18T00:50:54.233Z,73.30
2019-03-18T00:53:23.519Z,73.40
2019-03-18T00:55:52.804Z,73.30
2019-03-18T00:58:22.267Z,73.40
2019-03-18T01:00:58.222Z,73.10
2019-03-18T01:03:27.127Z,73.20
2019-03-18T01:05:56.426Z,73.50
2019-03-18T01:08:26.366Z,73.40
2019-03-18T01:10:55.497Z,73.20
2019-03-18T01:13:24.529Z,73.40
2019-03-18T01:15:58.472Z,73.90
2019-03-18T01:18:27.240Z,73.80
2019-03-18T01:20:56.326Z,73.80
2019-03-18T01:23:25.455Z,74.00
2019-03-18T01:25:54.736Z,74.10
2019-03-18T01:28:24.145Z,74.00
2019-03-18T01:30:53.789Z,74.30
2019-03-18T01:33:22.863Z,74.10
2019-03-18T01:35:51.972Z,74.40
2019-03-18T01:38:21.137Z,74.40
2019-03-18T01:40:50.529Z,74.40
2019-03-18T01:43:19.907Z,74.40
2019-03-18T01:45:49.242Z,74.40
2019-03-18T01:48:18.346Z,74.50
2019-03-18T01:50:47.485Z,74.50
2019-03-18T01:53:16.758Z,74.70
2019-03-18T01:55:45.525Z,74.90
2019-03-18T01:58:14.585Z,74.90
2019-03-18T02:00:43.980Z,75.10
2019-03-18T02:03:13.572Z,75.00
2019-03-18T02:05:42.848Z,74.90
2019-03-18T02:08:12.196Z,74.80
2019-03-18T02:10:42.055Z,74.80
2019-03-18T02:13:11.219Z,74.80
2019-03-18T02:15:52.592Z,74.70
2019-03-18T02:18:11.698Z,74.70
2019-03-18T02:20:40.761Z,74.90
2019-03-18T02:23:09.773Z,75.00
2019-03-18T02:25:38.878Z,75.00
2019-03-18T02:28:07.976Z,74.90
2019-03-18T02:30:37.218Z,74.90
2019-03-18T02:33:06.390Z,74.90
2019-03-18T02:35:35.485Z,75.10
2019-03-18T02:38:04.380Z,75.00
2019-03-18T02:40:33.485Z,75.10
2019-03-18T02:43:03.051Z,75.10
2019-03-18T02:45:32.170Z,75.10
2019-03-18T02:48:02.076Z,75.10
2019-03-18T02:50:31.199Z,75.00
2019-03-18T02:52:59.963Z,75.00
2019-03-18T02:55:28.814Z,74.90
2019-03-18T02:57:57.852Z,75.00
2019-03-18T03:00:27.183Z,74.90
2019-03-18T03:02:56.215Z,74.90
2019-03-18T03:05:25.202Z,74.90
2019-03-18T03:07:54.523Z,74.90
2019-03-18T03:10:23.567Z,74.80
2019-03-18T03:12:52.614Z,75.00
2019-03-18T03:15:21.740Z,75.10
2019-03-18T03:17:50.578Z,75.00
2019-03-18T03:20:19.644Z,75.10
2019-03-18T03:22:48.383Z,75.30
2019-03-18T03:25:17.755Z,75.40
2019-03-18T03:27:47.043Z,75.40
2019-03-18T03:30:16.327Z,75.50
2019-03-18T03:32:45.212Z,75.50
2019-03-18T03:35:14.846Z,75.40
2019-03-18T03:37:43.815Z,75.40
2019-03-18T03:40:13.107Z,75.40
2019-03-18T03:42:42.156Z,75.30
2019-03-18T03:45:10.999Z,75.50
2019-03-18T03:47:39.832Z,75.40
2019-03-18T03:50:09.397Z,75.50
2019-03-18T03:52:38.237Z,75.50
2019-03-18T03:55:07.621Z,75.40
2019-03-18T03:57:36.805Z,75.40
2019-03-18T04:00:06.337Z,75.30
2019-03-18T04:02:35.184Z,75.50
2019-03-18T04:05:04.341Z,75.60
2019-03-18T04:07:33.261Z,75.60
2019-03-18T04:10:02.194Z,75.60
2019-03-18T04:12:31.248Z,75.60
2019-03-18T04:15:00.583Z,75.60
2019-03-18T04:17:30.234Z,75.60
2019-03-18T04:19:58.979Z,75.70
2019-03-18T04:22:27.833Z,75.70
2019-03-18T04:24:57.199Z,75.70
2019-03-18T04:27:25.993Z,75.40
2019-03-18T04:29:55.132Z,75.50
2019-03-18T04:32:24.191Z,75.60
2019-03-18T04:34:53.230Z,75.60
2019-03-18T04:37:22.262Z,75.60
2019-03-18T04:39:51.564Z,75.60
2019-03-18T04:42:20.625Z,75.70
2019-03-18T04:44:49.917Z,75.70
2019-03-18T04:47:18.711Z,75.80
2019-03-18T04:49:48.069Z,75.80
2019-03-18T04:52:17.397Z,75.80
2019-03-18T04:54:46.439Z,75.60
2019-03-18T04:57:15.539Z,75.60
2019-03-18T04:59:44.300Z,75.70
2019-03-18T05:02:13.054Z,75.70
2019-03-18T05:04:42.108Z,75.60
2019-03-18T05:07:11.487Z,75.50
2019-03-18T05:09:40.626Z,75.40
2019-03-18T05:12:10.052Z,75.50
2019-03-18T05:14:39.230Z,75.60
2019-03-18T05:17:08.797Z,75.60
2019-03-18T05:19:38.164Z,75.90
2019-03-18T05:22:07.215Z,75.90
2019-03-18T05:24:36.269Z,76.00
2019-03-18T05:27:05.795Z,76.10
2019-03-18T05:29:34.691Z,76.10
2019-03-18T05:32:05.054Z,76.20
2019-03-18T05:34:34.165Z,76.10
2019-03-18T05:37:03.357Z,76.10
2019-03-18T05:39:32.348Z,76.10
2019-03-18T05:42:01.404Z,76.10
2019-03-18T05:44:30.542Z,76.10
2019-03-18T05:46:59.289Z,76.10
2019-03-18T05:49:28.560Z,76.20
2019-03-18T05:51:58.351Z,76.20
2019-03-18T05:54:27.395Z,76.20
2019-03-18T05:56:56.435Z,76.50
2019-03-18T05:59:25.527Z,76.70
2019-03-18T06:01:54.627Z,77.20
2019-03-18T06:04:23.404Z,76.30
2019-03-18T06:06:53.214Z,76.30
2019-03-18T06:09:22.277Z,76.30
2019-03-18T06:11:51.637Z,76.30
2019-03-18T06:14:20.414Z,76.20
2019-03-18T06:16:49.739Z,76.00
2019-03-18T06:19:18.488Z,75.90
2019-03-18T06:21:47.262Z,75.90
2019-03-18T06:24:16.287Z,75.90
2019-03-18T06:26:45.321Z,76.10
2019-03-18T06:29:14.202Z,77.00
2019-03-18T06:31:43.222Z,76.30
2019-03-18T06:34:12.237Z,76.30
2019-03-18T06:36:41.040Z,76.30
2019-03-18T06:39:10.077Z,76.30
2019-03-18T06:41:38.863Z,76.30
2019-03-18T06:44:08.132Z,76.30
2019-03-18T06:46:37.181Z,76.30
2019-03-18T06:49:06.247Z,76.40
2019-03-18T06:51:35.786Z,76.50
2019-03-18T06:54:05.150Z,76.60
2019-03-18T06:56:34.426Z,76.60
2019-03-18T06:59:03.186Z,76.50
2019-03-18T07:01:32.216Z,76.30
2019-03-18T07:04:01.732Z,76.20
2019-03-18T07:06:31.081Z,76.40
2019-03-18T07:09:00.353Z,76.30
2019-03-18T07:11:29.642Z,76.40
2019-03-18T07:13:58.394Z,76.40
2019-03-18T07:16:27.738Z,76.40
2019-03-18T07:18:57.041Z,76.50
2019-03-18T07:21:26.138Z,76.30
2019-03-18T07:23:55.204Z,76.30
2019-03-18T07:26:24.807Z,76.20
2019-03-18T07:28:53.585Z,76.30
2019-03-18T07:31:22.941Z,76.30
2019-03-18T07:33:51.888Z,76.40
2019-03-18T07:36:21.356Z,76.50
2019-03-18T07:38:50.381Z,76.50
2019-03-18T07:41:19.415Z,76.40
2019-03-18T07:43:48.691Z,76.30
2019-03-18T07:46:17.989Z,76.20
2019-03-18T07:48:47.014Z,76.10
2019-03-18T07:51:16.153Z,76.10
2019-03-18T07:53:45.197Z,76.20
2019-03-18T07:56:14.251Z,76.20
2019-03-18T07:58:43.830Z,76.20
2019-03-18T08:01:13.132Z,76.00
2019-03-18T08:03:42.559Z,76.20
2019-03-18T08:06:11.525Z,76.20
2019-03-18T08:08:40.636Z,76.30
2019-03-18T08:11:09.763Z,76.30
2019-03-18T08:13:38.872Z,76.30
2019-03-18T08:16:07.912Z,76.30
2019-03-18T08:18:43.233Z,76.30
2019-03-18T08:21:07.904Z,76.20
2019-03-18T08:23:36.911Z,76.20
2019-03-18T08:26:05.696Z,76.20
2019-03-18T08:28:34.738Z,76.40
2019-03-18T08:31:03.794Z,76.30
2019-03-18T08:33:32.885Z,76.30
2019-03-18T08:36:01.676Z,76.50
2019-03-18T08:38:30.713Z,76.80
2019-03-18T08:40:59.796Z,76.80
2019-03-18T08:43:28.601Z,76.80
2019-03-18T08:45:57.438Z,76.70
2019-03-18T08:48:26.210Z,76.50
2019-03-18T08:50:54.986Z,76.50
2019-03-18T08:53:23.740Z,76.50
2019-03-18T08:55:52.803Z,76.30
2019-03-18T08:58:22.311Z,76.20
2019-03-18T09:00:51.637Z,76.50
2019-03-18T09:03:20.694Z,76.40
2019-03-18T09:05:50.027Z,76.30
2019-03-18T09:08:19.474Z,76.20
2019-03-18T09:10:48.736Z,76.30
2019-03-18T09:13:18.129Z,76.40
2019-03-18T09:15:47.034Z,76.30
2019-03-18T09:18:16.118Z,76.40
2019-03-18T09:20:45.290Z,76.60
2019-03-18T09:23:14.851Z,76.90
2019-03-18T09:25:43.730Z,77.20
2019-03-18T09:28:13.328Z,77.30
2019-03-18T09:30:42.926Z,76.90
2019-03-18T09:33:12.321Z,76.60
2019-03-18T09:35:41.742Z,76.10
2019-03-18T09:38:10.795Z,76.00
2019-03-18T09:40:40.448Z,76.00
2019-03-18T09:43:09.624Z,75.90
2019-03-18T09:45:38.663Z,75.50
2019-03-18T09:48:07.128Z,75.30
2019-03-18T09:50:35.913Z,74.80
2019-03-18T09:53:04.995Z,74.40
2019-03-18T09:55:34.055Z,74.50
2019-03-18T09:58:03.358Z,75.10
2019-03-18T10:00:32.479Z,75.60
2019-03-18T10:03:01.336Z,75.70
2019-03-18T10:05:30.193Z,75.90
2019-03-18T10:07:59.551Z,76.20
2019-03-18T10:10:28.679Z,76.40
2019-03-18T10:12:58.118Z,76.70
2019-03-18T10:15:26.883Z,77.00
2019-03-18T10:17:55.793Z,76.80
2019-03-18T10:20:24.577Z,76.70
2019-03-18T10:22:53.641Z,76.80
2019-03-18T10:25:22.690Z,76.90
2019-03-18T10:27:52.254Z,76.90
2019-03-18T10:30:21.087Z,76.60
2019-03-18T10:32:49.924Z,76.30
2019-03-18T10:35:18.666Z,75.80
2019-03-18T10:37:48.104Z,75.70
2019-03-18T10:40:17.563Z,75.40
2019-03-18T10:42:47.101Z,75.40
2019-03-18T10:45:16.605Z,75.50
2019-03-18T10:47:45.966Z,75.40
2019-03-18T10:50:15.143Z,75.30
2019-03-18T10:52:44.274Z,75.10
2019-03-18T10:55:13.679Z,75.10
2019-03-18T10:57:42.595Z,75.20
2019-03-18T11:00:13.058Z,75.00
2019-03-18T11:02:44.687Z,75.20
2019-03-18T11:05:12.842Z,75.00
2019-03-18T11:07:41.595Z,74.90
2019-03-18T11:10:12.578Z,74.90
2019-03-18T11:12:41.564Z,74.80
2019-03-18T11:15:11.439Z,74.60
2019-03-18T11:17:40.842Z,74.50
2019-03-18T11:20:10.718Z,74.80
2019-03-18T11:22:39.610Z,75.00
2019-03-18T11:25:08.776Z,74.90
2019-03-18T11:27:37.781Z,74.70
2019-03-18T11:30:07.157Z,74.50
2019-03-18T11:32:36.265Z,74.40
2019-03-18T11:35:05.594Z,74.30
2019-03-18T11:37:35.487Z,74.30
2019-03-18T11:40:05.059Z,74.10
2019-03-18T11:42:34.167Z,74.20
2019-03-18T11:45:03.309Z,74.20
2019-03-18T11:47:32.390Z,74.10
2019-03-18T11:50:10.470Z,73.90
2019-03-18T11:52:32.867Z,73.70
2019-03-18T11:55:02.258Z,73.70
2019-03-18T11:57:31.050Z,74.00
2019-03-18T12:00:00.252Z,74.20
2019-03-18T12:02:29.475Z,74.50
2019-03-18T12:04:58.604Z,74.40
2019-03-18T12:07:27.945Z,74.30
2019-03-18T12:09:57.307Z,74.50
2019-03-18T12:12:26.081Z,74.90
2019-03-18T12:14:55.484Z,75.00
2019-03-18T12:17:24.560Z,75.00
2019-03-18T12:19:53.435Z,74.90
2019-03-18T12:22:23.857Z,74.90
2019-03-18T12:24:52.661Z,74.90
2019-03-18T12:27:22.011Z,74.70
2019-03-18T12:29:51.331Z,75.00
2019-03-18T12:32:20.680Z,75.10
2019-03-18T12:34:49.807Z,75.20
2019-03-18T12:37:19.184Z,75.00
2019-03-18T12:39:48.306Z,74.70
2019-03-18T12:42:17.410Z,74.70
2019-03-18T12:44:46.485Z,74.80
2019-03-18T12:47:16.058Z,74.80
2019-03-18T12:49:45.485Z,74.60
2019-03-18T12:52:14.512Z,74.50
2019-03-18T12:54:43.275Z,74.40
2019-03-18T12:57:12.381Z,74.40
2019-03-18T12:59:41.203Z,74.40
2019-03-18T13:02:10.667Z,74.40
2019-03-18T13:04:39.764Z,74.30
2019-03-18T13:07:08.802Z,74.20
2019-03-18T13:09:38.102Z,74.20
2019-03-18T13:12:07.160Z,74.00
2019-03-18T13:14:36.884Z,73.80
2019-03-18T13:17:06.031Z,73.80
2019-03-18T13:19:35.347Z,74.10
2019-03-18T13:22:04.639Z,73.90
2019-03-18T13:24:33.960Z,73.60
2019-03-18T13:27:03.268Z,73.80
2019-03-18T13:29:32.176Z,73.60
2019-03-18T13:32:01.555Z,73.40
2019-03-18T13:34:30.650Z,73.20
2019-03-18T13:36:59.423Z,73.10
2019-03-18T13:39:28.769Z,73.10
2019-03-18T13:41:57.992Z,73.40
2019-03-18T13:44:27.013Z,73.40
2019-03-18T13:46:56.614Z,73.20
2019-03-18T13:49:26.007Z,73.10
2019-03-18T13:51:55.571Z,72.90
2019-03-18T13:54:24.882Z,72.80
2019-03-18T13:56:54.531Z,72.70
2019-03-18T13:59:23.878Z,72.50
2019-03-18T14:01:52.749Z,72.20
2019-03-18T14:04:21.663Z,71.70
2019-03-18T14:06:50.729Z,71.80
2019-03-18T14:09:19.646Z,72.00
2019-03-18T14:11:48.983Z,72.00
2019-03-18T14:14:18.947Z,72.00
2019-03-18T14:16:48.081Z,72.00
2019-03-18T14:19:17.216Z,72.10
2019-03-18T14:21:46.705Z,72.20
2019-03-18T14:24:15.884Z,72.10
2019-03-18T14:26:44.911Z,72.30
2019-03-18T14:29:14.513Z,72.20
2019-03-18T14:31:43.813Z,72.20
2019-03-18T14:34:12.954Z,72.30
2019-03-18T14:36:41.753Z,72.40
2019-03-18T14:39:10.833Z,72.40
2019-03-18T14:41:39.968Z,72.00
2019-03-18T14:44:09.299Z,71.60
2019-03-18T14:46:38.358Z,71.50
2019-03-18T14:49:07.389Z,71.40
2019-03-18T14:51:45.377Z,71.10
2019-03-18T14:54:07.541Z,71.10
2019-03-18T14:56:36.953Z,71.00
2019-03-18T14:59:05.825Z,71.00
2019-03-18T15:01:35.161Z,71.10
2019-03-18T15:04:04.486Z,71.10
2019-03-18T15:06:33.410Z,71.30
2019-03-18T15:09:02.590Z,71.60
2019-03-18T15:11:31.721Z,71.60
2019-03-18T15:14:00.664Z,71.60
2019-03-18T15:16:29.514Z,71.60
2019-03-18T15:18:58.405Z,71.60
2019-03-18T15:21:27.455Z,71.20
2019-03-18T15:23:57.041Z,71.10
2019-03-18T15:26:25.818Z,71.10
2019-03-18T15:28:54.987Z,71.10
2019-03-18T15:31:23.761Z,71.40
2019-03-18T15:33:52.580Z,71.40
2019-03-18T15:36:21.881Z,71.20
2019-03-18T15:38:51.256Z,71.10
2019-03-18T15:41:20.371Z,71.00
2019-03-18T15:43:49.410Z,71.30
2019-03-18T15:46:18.178Z,71.40
2019-03-18T15:48:46.969Z,71.20
2019-03-18T15:51:16.027Z,71.20
2019-03-18T15:53:45.099Z,71.10
2019-03-18T15:56:14.496Z,71.00
2019-03-18T15:58:43.566Z,71.00
2019-03-18T16:01:13.083Z,71.10
2019-03-18T16:03:41.900Z,71.00
2019-03-18T16:06:11.593Z,70.90
2019-03-18T16:08:40.398Z,71.00
2019-03-18T16:11:09.544Z,71.30
2019-03-18T16:13:39.136Z,71.40
2019-03-18T16:16:08.458Z,71.40
2019-03-18T16:18:37.795Z,70.90
2019-03-18T16:21:06.729Z,70.90
2019-03-18T16:23:35.793Z,70.90
2019-03-18T16:26:05.009Z,70.90
2019-03-18T16:28:34.763Z,70.80
2019-03-18T16:31:03.719Z,70.80
2019-03-18T16:33:32.786Z,70.70
2019-03-18T16:36:02.208Z,70.60
2019-03-18T16:38:31.324Z,70.60
2019-03-18T16:41:00.158Z,70.50
2019-03-18T16:43:29.358Z,70.40
2019-03-18T16:45:58.744Z,70.40
2019-03-18T16:48:27.786Z,70.30
2019-03-18T16:50:56.951Z,70.30
2019-03-18T16:53:26.035Z,70.30
2019-03-18T16:55:54.805Z,70.30
2019-03-18T16:58:23.673Z,70.20
2019-03-18T17:00:52.475Z,70.20
2019-03-18T17:03:21.729Z,70.20
2019-03-18T17:05:50.840Z,70.20
2019-03-18T17:08:20.276Z,70.20
2019-03-18T17:10:49.151Z,70.10
2019-03-18T17:13:18.196Z,70.00
2019-03-18T17:15:47.347Z,69.70
2019-03-18T17:18:17.982Z,70.40
2019-03-18T17:20:47.452Z,70.80
2019-03-18T17:23:16.548Z,71.20
2019-03-18T17:25:46.004Z,71.40
2019-03-18T17:28:15.610Z,71.40
2019-03-18T17:30:44.667Z,71.40
2019-03-18T17:33:14.251Z,71.40
2019-03-18T17:35:43.761Z,71.40
2019-03-18T17:38:12.542Z,72.10
2019-03-18T17:40:41.695Z,71.40
2019-03-18T17:43:11.278Z,71.50
2019-03-18T17:45:40.421Z,71.60
2019-03-18T17:48:09.237Z,71.60
2019-03-18T17:50:38.351Z,71.70
2019-03-18T17:53:07.834Z,71.80
2019-03-18T17:55:36.925Z,71.90
2019-03-18T17:58:06.418Z,72.00
2019-03-18T18:00:38.446Z,72.00
2019-03-18T18:03:07.648Z,72.10
2019-03-18T18:05:37.063Z,72.10
2019-03-18T18:08:06.235Z,72.00
2019-03-18T18:10:35.569Z,72.00
2019-03-18T18:13:04.778Z,72.00
2019-03-18T18:15:34.264Z,72.00
2019-03-18T18:18:03.346Z,71.90
2019-03-18T18:20:32.158Z,71.90
2019-03-18T18:23:13.212Z,72.00
2019-03-18T18:25:32.691Z,72.10
2019-03-18T18:28:01.514Z,72.20
2019-03-18T18:30:30.575Z,72.30
2019-03-18T18:32:59.482Z,72.30
2019-03-18T18:35:28.523Z,72.20
2019-03-18T18:37:57.842Z,72.10
2019-03-18T18:40:27.034Z,72.10
2019-03-18T18:42:56.235Z,71.90
2019-03-18T18:45:25.315Z,71.90
2019-03-18T18:47:54.564Z,72.00
2019-03-18T18:50:24.162Z,72.00
2019-03-18T18:52:53.786Z,72.00
2019-03-18T18:55:22.560Z,72.10
2019-03-18T18:57:51.991Z,72.20
2019-03-18T19:00:20.888Z,72.20
2019-03-18T19:02:50.006Z,72.20
2019-03-18T19:05:19.534Z,72.30
2019-03-18T19:07:48.766Z,72.50
2019-03-18T19:10:17.950Z,72.50
2019-03-18T19:12:47.466Z,72.70
2019-03-18T19:15:18.326Z,72.80
2019-03-18T19:17:47.517Z,72.90
2019-03-18T19:20:16.595Z,73.00
2019-03-18T19:22:45.437Z,73.00
2019-03-18T19:25:14.526Z,73.00
2019-03-18T19:27:43.321Z,73.10
2019-03-18T19:30:14.839Z,73.00
2019-03-18T19:32:44.592Z,73.00
2019-03-18T19:35:13.565Z,73.00
2019-03-18T19:37:42.650Z,72.90
2019-03-18T19:40:12.337Z,72.90
2019-03-18T19:42:41.430Z,72.90
2019-03-18T19:45:11.680Z,72.90
2019-03-18T19:47:41.085Z,73.00
2019-03-18T19:50:12.474Z,72.90
2019-03-18T19:52:41.517Z,72.90
2019-03-18T19:55:10.464Z,72.90
2019-03-18T19:57:39.523Z,72.90
2019-03-18T20:00:11.157Z,72.90
2019-03-18T20:02:40.625Z,73.00
2019-03-18T20:05:15.033Z,72.90
2019-03-18T20:07:40.799Z,72.90
2019-03-18T20:10:11.101Z,73.00
2019-03-18T20:12:40.201Z,73.00
2019-03-18T20:15:10.360Z,72.90
2019-03-18T20:17:39.693Z,72.90
2019-03-18T20:20:10.303Z,72.90
2019-03-18T20:22:39.839Z,72.90
2019-03-18T20:25:08.931Z,72.80
2019-03-18T20:27:38.028Z,72.90
2019-03-18T20:30:09.272Z,73.00
2019-03-18T20:32:38.306Z,73.10
2019-03-18T20:35:08.548Z,73.10
2019-03-18T20:37:37.328Z,73.00
2019-03-18T20:40:07.004Z,72.90
2019-03-18T20:42:35.808Z,73.00
2019-03-18T20:45:05.394Z,72.90
2019-03-18T20:47:34.429Z,72.90
2019-03-18T20:50:03.592Z,73.00
2019-03-18T20:52:32.641Z,73.10
2019-03-18T20:55:01.815Z,73.10
2019-03-18T20:57:32.039Z,73.10
2019-03-18T21:00:02.275Z,73.00
2019-03-18T21:02:31.149Z,73.00
2019-03-18T21:05:00.487Z,73.10
2019-03-18T21:07:29.702Z,73.20
2019-03-18T21:09:59.019Z,73.20
2019-03-18T21:12:27.885Z,73.20
2019-03-18T21:14:57.011Z,73.20
2019-03-18T21:17:26.355Z,73.20
2019-03-18T21:19:55.642Z,73.20
2019-03-18T21:22:24.669Z,73.30
2019-03-18T21:24:53.747Z,73.40
2019-03-18T21:27:22.872Z,73.50
2019-03-18T21:29:52.684Z,73.60
2019-03-18T21:32:22.013Z,73.60
2019-03-18T21:34:50.790Z,73.80
2019-03-18T21:37:19.891Z,73.70
2019-03-18T21:39:48.673Z,73.60
2019-03-18T21:42:17.472Z,73.40
2019-03-18T21:44:47.033Z,73.40
2019-03-18T21:47:16.332Z,73.50
2019-03-18T21:49:45.227Z,73.60
2019-03-18T21:52:16.675Z,73.50
2019-03-18T21:54:46.217Z,73.60
2019-03-18T21:57:15.511Z,73.70
2019-03-18T21:59:44.811Z,73.80
2019-03-18T22:02:13.815Z,73.60
2019-03-18T22:04:42.900Z,73.60
2019-03-18T22:07:12.476Z,73.80
2019-03-18T22:09:41.542Z,73.90
2019-03-18T22:12:10.620Z,74.10
2019-03-18T22:14:39.433Z,74.10
2019-03-18T22:17:08.830Z,74.20
2019-03-18T22:19:38.135Z,74.10
2019-03-18T22:22:07.203Z,74.10
2019-03-18T22:24:44.937Z,74.00
2019-03-18T22:27:07.527Z,74.10
2019-03-18T22:29:36.578Z,74.90
2019-03-18T22:32:05.436Z,74.00
2019-03-18T22:34:34.507Z,73.80
2019-03-18T22:37:03.571Z,73.70
2019-03-18T22:39:32.388Z,73.70
2019-03-18T22:42:01.662Z,73.70
2019-03-18T22:44:30.726Z,73.70
2019-03-18T22:47:00.467Z,73.90
2019-03-18T22:49:29.546Z,73.90
2019-03-18T22:51:58.569Z,74.20
2019-03-18T22:54:27.773Z,74.30
2019-03-18T22:56:57.077Z,74.30
2019-03-18T22:59:26.144Z,74.30
2019-03-18T23:01:55.290Z,74.40
2019-03-18T23:04:24.326Z,74.40
2019-03-18T23:06:53.609Z,74.40
2019-03-18T23:09:22.911Z,74.40
2019-03-18T23:11:52.477Z,74.50
2019-03-18T23:14:21.543Z,74.40
2019-03-18T23:16:50.310Z,74.20
2019-03-18T23:19:21.045Z,74.00
2019-03-18T23:21:49.940Z,74.00
2019-03-18T23:24:19.444Z,73.90
2019-03-18T23:26:48.875Z,74.20
2019-03-18T23:29:17.948Z,74.20
2019-03-18T23:31:47.022Z,74.10
2019-03-18T23:34:15.942Z,74.20
2019-03-18T23:36:44.791Z,74.10
2019-03-18T23:39:13.915Z,74.10
2019-03-18T23:41:43.217Z,74.00
2019-03-18T23:44:12.258Z,74.30
2019-03-18T23:46:41.637Z,74.50
2019-03-18T23:49:10.662Z,74.70
2019-03-18T23:51:39.845Z,74.80
2019-03-18T23:54:09.150Z,74.90
2019-03-18T23:56:38.531Z,74.90
2019-03-18T23:59:07.654Z,74.90
